createdAt,value
2023-08-08T00:00:21.001Z,99901.28
2023-08-08T00:01:52.842Z,99898.72
2023-08-08T00:03:24.755Z,99900.69
2023-08-08T00:04:56.643Z,99902.69
2023-08-08T00:06:29.034Z,99903.81
2023-08-08T00:08:00.915Z,99905.66
2023-08-08T00:09:32.940Z,99897.84
2023-08-08T00:11:04.857Z,99898.13
2023-08-08T00:12:36.735Z,99900.97
2023-08-08T00:14:08.608Z,99905.66
2023-08-08T00:15:40.680Z,99900.38
2023-08-08T00:17:12.613Z,99901.50
2023-08-08T00:18:44.538Z,99896.25
2023-08-08T00:20:16.794Z,99903.50
2023-08-08T00:21:48.641Z,99899.22
2023-08-08T00:23:20.615Z,99902.78
2023-08-08T00:24:52.503Z,99899.34
2023-08-08T00:26:24.385Z,99895.97
2023-08-08T00:27:56.292Z,99891.53
2023-08-08T00:29:28.151Z,99894.38
2023-08-08T00:31:00.097Z,99892.69
2023-08-08T00:32:32.153Z,99893.66
2023-08-08T00:34:04.095Z,99898.22
2023-08-08T00:35:35.980Z,99885.84
2023-08-08T00:37:08.959Z,99890.38
2023-08-08T00:38:41.332Z,99888.69
2023-08-08T00:40:13.232Z,99893.25
2023-08-08T00:41:45.285Z,99888.81
2023-08-08T00:43:17.222Z,99889.53
2023-08-08T00:44:50.175Z,99886.84
2023-08-08T00:46:23.640Z,99887.56
2023-08-08T00:47:55.825Z,99883.72
2023-08-08T00:49:27.781Z,99882.47
2023-08-08T00:51:00.664Z,99878.66
2023-08-08T00:52:32.709Z,99881.94
2023-08-08T00:54:05.473Z,99886.16
2023-08-08T00:55:37.732Z,99885.19
2023-08-08T00:57:09.685Z,99885.91
2023-08-08T00:58:42.050Z,99876.84
2023-08-08T01:00:14.149Z,99885.91
2023-08-08T01:01:46.178Z,99893.03
2023-08-08T01:03:18.084Z,99887.63
2023-08-08T01:04:50.359Z,99889.59
2023-08-08T01:06:39.598Z,99892.56
2023-08-08T01:08:17.508Z,99890.59
2023-08-08T01:10:09.910Z,99887.31
2023-08-08T01:11:42.951Z,99884.63
2023-08-08T01:13:23.088Z,99881.22
2023-08-08T01:14:55.798Z,99877.78
2023-08-08T01:16:28.430Z,99885.03
2023-08-08T01:18:07.866Z,99878.22
2023-08-08T01:19:40.365Z,99888.28
2023-08-08T01:21:12.828Z,99888.53
2023-08-08T01:23:11.215Z,99873.91
2023-08-08T01:24:45.226Z,99879.03
2023-08-08T01:26:17.728Z,99873.91
2023-08-08T01:27:49.901Z,99876.88
2023-08-08T01:29:21.844Z,99874.34
2023-08-08T01:30:55.304Z,99875.31
2023-08-08T01:32:27.339Z,99875.47
2023-08-08T01:33:59.631Z,99869.34
2023-08-08T01:35:35.467Z,99864.09
2023-08-08T01:37:22.119Z,99872.41
2023-08-08T01:39:01.057Z,99867.03
2023-08-08T01:40:33.476Z,99861.75
2023-08-08T01:42:07.475Z,99873.69
2023-08-08T01:43:40.756Z,99867.56
2023-08-08T01:45:13.450Z,99873.13
2023-08-08T01:46:45.400Z,99870.53
2023-08-08T01:48:19.251Z,99873.38
2023-08-08T01:49:51.181Z,99876.09
2023-08-08T01:51:23.196Z,99874.34
2023-08-08T01:52:55.111Z,99871.53
2023-08-08T01:54:27.083Z,99873.50
2023-08-08T01:55:58.956Z,99880.59
2023-08-08T01:57:30.826Z,99874.34
2023-08-08T01:59:04.464Z,99864.56
2023-08-08T02:00:37.949Z,99869.97
2023-08-08T02:02:10.066Z,99872.81
2023-08-08T02:03:42.053Z,99876.34
2023-08-08T02:05:14.153Z,99868.53
2023-08-08T02:06:46.109Z,99873.06
2023-08-08T02:08:19.514Z,99881.28
2023-08-08T02:09:52.171Z,99879.44
2023-08-08T02:11:24.127Z,99882.28
2023-08-08T02:12:55.996Z,99883.38
2023-08-08T02:14:28.885Z,99878.16
2023-08-08T02:16:01.661Z,99880.97
2023-08-08T02:17:33.562Z,99876.44
2023-08-08T02:19:05.500Z,99879.28
2023-08-08T02:20:37.775Z,99882.09
2023-08-08T02:22:10.665Z,99879.66
2023-08-08T02:23:42.591Z,99878.81
2023-08-08T02:25:14.564Z,99875.25
2023-08-08T02:26:46.427Z,99879.06
2023-08-08T02:28:19.911Z,99882.75
2023-08-08T02:29:51.838Z,99874.78
2023-08-08T02:31:23.848Z,99875.94
2023-08-08T02:32:56.492Z,99881.44
2023-08-08T02:34:28.406Z,99881.59
2023-08-08T02:36:02.075Z,99884.28
2023-08-08T02:37:33.951Z,99880.00
2023-08-08T02:39:05.881Z,99876.47
2023-08-08T02:40:37.901Z,99877.59
2023-08-08T02:42:09.832Z,99876.84
2023-08-08T02:43:41.956Z,99877.84
2023-08-08T02:45:13.840Z,99876.16
2023-08-08T02:46:45.733Z,99877.28
2023-08-08T02:48:18.768Z,99871.88
2023-08-08T02:49:50.936Z,99869.31
2023-08-08T02:51:23.192Z,99871.16
2023-08-08T02:52:55.082Z,99868.47
2023-08-08T02:54:30.810Z,99869.31
2023-08-08T02:56:02.734Z,99870.31
2023-08-08T02:57:38.745Z,99871.28
2023-08-08T02:59:10.713Z,99874.09
2023-08-08T03:00:42.644Z,99872.16
2023-08-08T03:02:18.302Z,99866.75
2023-08-08T03:03:51.139Z,99866.03
2023-08-08T03:05:25.727Z,99873.16
2023-08-08T03:06:57.762Z,99875.69
2023-08-08T03:08:29.650Z,99874.84
2023-08-08T03:10:03.225Z,99865.91
2023-08-08T03:11:38.721Z,99868.47
2023-08-08T03:13:12.689Z,99867.59
2023-08-08T03:14:45.201Z,99867.59
2023-08-08T03:16:17.210Z,99876.69
2023-08-08T03:17:49.423Z,99865.91
2023-08-08T03:19:21.885Z,99869.59
2023-08-08T03:20:54.459Z,99871.16
2023-08-08T03:22:27.252Z,99864.22
2023-08-08T03:23:59.355Z,99875.94
2023-08-08T03:25:31.488Z,99870.44
2023-08-08T03:27:03.794Z,99871.41
2023-08-08T03:28:35.661Z,99875.00
2023-08-08T03:30:08.180Z,99867.75
2023-08-08T03:31:45.514Z,99864.22
2023-08-08T03:33:17.731Z,99860.53
2023-08-08T03:34:49.822Z,99862.38
2023-08-08T03:36:21.895Z,99867.75
2023-08-08T03:37:53.984Z,99870.31
2023-08-08T03:39:25.863Z,99864.91
2023-08-08T03:40:57.728Z,99871.28
2023-08-08T03:42:29.742Z,99872.16
2023-08-08T03:44:04.018Z,99874.69
2023-08-08T03:45:36.023Z,99867.59
2023-08-08T03:47:18.710Z,99866.91
2023-08-08T03:48:54.394Z,99863.22
2023-08-08T03:50:26.629Z,99870.44
2023-08-08T03:51:58.518Z,99874.00
2023-08-08T03:53:30.650Z,99872.16
2023-08-08T03:55:03.078Z,99866.03
2023-08-08T03:56:35.752Z,99869.47
2023-08-08T03:58:07.805Z,99865.91
2023-08-08T03:59:40.537Z,99861.53
2023-08-08T04:01:13.135Z,99859.69
2023-08-08T04:02:45.648Z,99866.75
2023-08-08T04:04:17.559Z,99864.06
2023-08-08T04:05:49.508Z,99863.91
2023-08-08T04:07:21.478Z,99860.25
2023-08-08T04:08:54.880Z,99856.56
2023-08-08T04:10:26.834Z,99852.88
2023-08-08T04:11:59.246Z,99855.47
2023-08-08T04:13:31.364Z,99855.19
2023-08-08T04:15:03.464Z,99853.34
2023-08-08T04:16:36.827Z,99854.06
2023-08-08T04:18:08.800Z,99851.13
2023-08-08T04:19:40.815Z,99852.66
2023-08-08T04:21:12.689Z,99861.31
2023-08-08T04:22:45.011Z,99851.28
2023-08-08T04:24:17.180Z,99855.41
2023-08-08T04:25:49.060Z,99847.06
2023-08-08T04:27:20.937Z,99852.06
2023-08-08T04:28:53.421Z,99849.94
2023-08-08T04:30:25.372Z,99841.59
2023-08-08T04:31:57.361Z,99855.47
2023-08-08T04:33:29.363Z,99861.34
2023-08-08T04:35:01.575Z,99860.06
2023-08-08T04:36:33.645Z,99869.50
2023-08-08T04:38:05.518Z,99866.25
2023-08-08T04:39:37.375Z,99863.97
2023-08-08T04:41:09.288Z,99861.84
2023-08-08T04:42:41.500Z,99855.34
2023-08-08T04:44:13.376Z,99861.31
2023-08-08T04:45:45.231Z,99861.75
2023-08-08T04:47:17.163Z,99865.19
2023-08-08T04:48:49.074Z,99866.59
2023-08-08T04:50:21.001Z,99859.19
2023-08-08T04:51:52.867Z,99862.63
2023-08-08T04:53:24.747Z,99863.06
2023-08-08T04:54:56.643Z,99866.47
2023-08-08T04:56:30.751Z,99863.50
2023-08-08T04:58:02.765Z,99871.47
2023-08-08T04:59:34.645Z,99873.00
2023-08-08T05:01:06.614Z,99868.19
2023-08-08T05:02:40.681Z,99871.47
2023-08-08T05:04:12.718Z,99868.78
2023-08-08T05:05:46.233Z,99874.00
2023-08-08T05:07:18.155Z,99872.88
2023-08-08T05:08:52.737Z,99875.31
2023-08-08T05:10:25.031Z,99865.19
2023-08-08T05:11:56.970Z,99873.16
2023-08-08T05:13:28.853Z,99869.19
2023-08-08T05:15:00.798Z,99867.06
2023-08-08T05:16:32.786Z,99867.50
2023-08-08T05:18:05.071Z,99866.38
2023-08-08T05:19:37.077Z,99861.38
2023-08-08T05:21:09.031Z,99865.19
2023-08-08T05:22:41.042Z,99856.41
2023-08-08T05:24:13.250Z,99860.81
2023-08-08T05:25:46.711Z,99862.94
2023-08-08T05:27:18.642Z,99867.28
2023-08-08T05:28:50.764Z,99864.78
2023-08-08T05:30:23.148Z,99854.09
2023-08-08T05:31:55.115Z,99853.19
2023-08-08T05:33:27.020Z,99856.44
2023-08-08T05:34:59.099Z,99858.63
2023-08-08T05:36:31.567Z,99856.84
2023-08-08T05:38:03.513Z,99857.88
2023-08-08T05:39:35.464Z,99860.38
2023-08-08T05:41:07.327Z,99860.44
2023-08-08T05:42:40.536Z,99851.28
2023-08-08T05:44:12.705Z,99865.06
2023-08-08T05:45:45.550Z,99862.72
2023-08-08T05:47:17.479Z,99855.78
2023-08-08T05:48:49.353Z,99852.88
2023-08-08T05:50:21.268Z,99854.59
2023-08-08T05:51:53.130Z,99851.19
2023-08-08T05:53:25.329Z,99855.28
2023-08-08T05:54:57.305Z,99848.78
2023-08-08T05:56:36.954Z,99857.75
2023-08-08T05:58:09.929Z,99859.13
2023-08-08T05:59:42.191Z,99862.50
2023-08-08T06:01:14.164Z,99856.06
2023-08-08T06:02:46.230Z,99861.31
2023-08-08T06:04:18.170Z,99862.81
2023-08-08T06:05:50.286Z,99859.91
2023-08-08T06:07:22.327Z,99861.25
2023-08-08T06:08:54.320Z,99865.81
2023-08-08T06:10:26.591Z,99863.44
2023-08-08T06:11:59.029Z,99866.66
2023-08-08T06:13:31.186Z,99870.69
2023-08-08T06:15:05.173Z,99861.34
2023-08-08T06:16:37.138Z,99865.38
2023-08-08T06:18:09.161Z,99859.63
2023-08-08T06:19:41.221Z,99862.81
2023-08-08T06:21:13.297Z,99866.88
2023-08-08T06:22:45.255Z,99870.88
2023-08-08T06:24:17.230Z,99874.94
2023-08-08T06:25:49.103Z,99873.53
2023-08-08T06:27:20.998Z,99873.34
2023-08-08T06:28:52.925Z,99870.09
2023-08-08T06:30:24.809Z,99870.59
2023-08-08T06:31:56.837Z,99878.34
2023-08-08T06:33:29.554Z,99872.56
2023-08-08T06:35:01.738Z,99866.44
2023-08-08T06:36:33.866Z,99865.94
2023-08-08T06:38:06.418Z,99867.09
2023-08-08T06:39:39.967Z,99869.13
2023-08-08T06:41:30.471Z,99873.00
2023-08-08T06:43:20.920Z,99867.06
2023-08-08T06:45:11.666Z,99868.22
2023-08-08T06:46:43.719Z,99872.94
2023-08-08T06:48:15.791Z,99870.41
2023-08-08T06:49:47.705Z,99860.53
2023-08-08T06:51:19.847Z,99864.28
2023-08-08T06:52:52.125Z,99867.16
2023-08-08T06:54:24.061Z,99870.84
2023-08-08T06:55:55.961Z,99858.31
2023-08-08T06:57:27.903Z,99863.59
2023-08-08T06:58:59.765Z,99864.59
2023-08-08T07:00:31.800Z,99859.16
2023-08-08T07:02:04.166Z,99862.91
2023-08-08T07:03:37.113Z,99855.47
2023-08-08T07:05:11.238Z,99858.19
2023-08-08T07:06:44.719Z,99855.13
2023-08-08T07:08:16.757Z,99858.53
2023-08-08T07:09:50.227Z,99848.53
2023-08-08T07:11:23.336Z,99848.22
2023-08-08T07:12:55.320Z,99838.75
2023-08-08T07:14:27.333Z,99843.00
2023-08-08T07:15:59.549Z,99834.56
2023-08-08T07:17:31.641Z,99836.63
2023-08-08T07:19:03.778Z,99832.44
2023-08-08T07:20:35.733Z,99842.78
2023-08-08T07:22:09.690Z,99840.28
2023-08-08T07:23:41.717Z,99848.63
2023-08-08T07:25:13.652Z,99836.13
2023-08-08T07:26:45.655Z,99847.16
2023-08-08T07:28:17.559Z,99855.69
2023-08-08T07:29:49.419Z,99853.69
2023-08-08T07:31:21.495Z,99841.34
2023-08-08T07:32:53.493Z,99846.81
2023-08-08T07:34:26.213Z,99849.72
2023-08-08T07:35:58.115Z,99859.88
2023-08-08T07:37:30.004Z,99845.31
2023-08-08T07:39:01.970Z,99849.94
2023-08-08T07:40:34.379Z,99850.94
2023-08-08T07:42:06.416Z,99854.69
2023-08-08T07:43:38.329Z,99856.75
2023-08-08T07:45:10.698Z,99854.94
2023-08-08T07:46:42.680Z,99845.06
2023-08-08T07:48:14.645Z,99849.50
2023-08-08T07:49:46.507Z,99852.69
2023-08-08T07:51:18.635Z,99854.75
2023-08-08T07:52:50.556Z,99852.00
2023-08-08T07:54:22.462Z,99852.97
2023-08-08T07:55:54.353Z,99849.59
2023-08-08T07:57:28.070Z,99851.75
2023-08-08T07:59:00.716Z,99854.09
2023-08-08T08:00:32.676Z,99843.69
2023-08-08T08:02:05.124Z,99850.78
2023-08-08T08:03:37.325Z,99861.63
2023-08-08T08:05:09.790Z,99856.31
2023-08-08T08:06:42.892Z,99856.28
2023-08-08T08:08:16.223Z,99858.09
2023-08-08T08:09:48.160Z,99864.75
2023-08-08T08:11:20.860Z,99861.47
2023-08-08T08:12:59.127Z,99864.88
2023-08-08T08:14:31.066Z,99862.81
2023-08-08T08:16:03.105Z,99858.22
2023-08-08T08:17:35.116Z,99846.28
2023-08-08T08:19:07.049Z,99858.03
2023-08-08T08:20:39.199Z,99854.25
2023-08-08T08:22:11.107Z,99852.22
2023-08-08T08:23:43.013Z,99851.19
2023-08-08T08:25:16.060Z,99853.75
2023-08-08T08:26:47.960Z,99847.25
2023-08-08T08:28:19.933Z,99851.66
2023-08-08T08:29:51.791Z,99846.72
2023-08-08T08:31:23.805Z,99846.38
2023-08-08T08:32:56.598Z,99840.16
2023-08-08T08:34:28.562Z,99846.09
2023-08-08T08:36:00.474Z,99843.50
2023-08-08T08:37:32.410Z,99845.84
2023-08-08T08:39:04.880Z,99843.44
2023-08-08T08:40:39.190Z,99848.53
2023-08-08T08:42:16.500Z,99844.75
2023-08-08T08:43:49.976Z,99847.13
2023-08-08T08:45:22.914Z,99846.09
2023-08-08T08:46:56.977Z,99855.28
2023-08-08T08:48:29.494Z,99845.44
2023-08-08T08:50:03.289Z,99843.06
2023-08-08T08:51:40.016Z,99845.13
2023-08-08T08:53:14.135Z,99842.75
2023-08-08T08:54:46.416Z,99844.16
2023-08-08T08:56:19.257Z,99837.03
2023-08-08T08:57:52.119Z,99842.16
2023-08-08T08:59:24.049Z,99845.25
2023-08-08T09:00:58.257Z,99846.66
2023-08-08T09:02:30.384Z,99851.81
2023-08-08T09:04:04.463Z,99857.13
2023-08-08T09:05:36.874Z,99857.88
2023-08-08T09:07:10.537Z,99861.31
2023-08-08T09:08:42.490Z,99876.47
2023-08-08T09:10:17.396Z,99868.31
2023-08-08T09:11:50.773Z,99878.22
2023-08-08T09:13:24.180Z,99871.13
2023-08-08T09:15:00.052Z,99865.72
2023-08-08T09:16:32.410Z,99864.06
2023-08-08T09:18:04.582Z,99871.41
2023-08-08T09:19:36.567Z,99873.31
2023-08-08T09:21:08.450Z,99873.34
2023-08-08T09:22:40.475Z,99870.31
2023-08-08T09:24:12.935Z,99866.41
2023-08-08T09:25:45.145Z,99863.19
2023-08-08T09:27:17.477Z,99861.97
2023-08-08T09:28:49.415Z,99863.16
2023-08-08T09:30:22.028Z,99863.50
2023-08-08T09:31:54.000Z,99857.41
2023-08-08T09:33:30.142Z,99860.47
2023-08-08T09:35:02.031Z,99856.03
2023-08-08T09:36:36.304Z,99865.22
2023-08-08T09:38:08.783Z,99862.84
2023-08-08T09:39:40.724Z,99854.88
2023-08-08T09:41:13.220Z,99854.19
2023-08-08T09:42:45.326Z,99857.09
2023-08-08T09:44:17.326Z,99853.50
2023-08-08T09:45:49.515Z,99857.44
2023-08-08T09:47:23.577Z,99849.28
2023-08-08T09:48:56.357Z,99856.75
2023-08-08T09:50:29.979Z,99858.78
2023-08-08T09:52:04.002Z,99860.50
2023-08-08T09:53:36.517Z,99856.75
2023-08-08T09:55:09.036Z,99855.91
2023-08-08T09:56:41.697Z,99852.00
2023-08-08T09:58:15.176Z,99872.72
2023-08-08T09:59:48.447Z,99868.63
2023-08-08T10:01:22.029Z,99874.91
2023-08-08T10:02:54.190Z,99864.72
2023-08-08T10:04:26.818Z,99863.53
2023-08-08T10:05:58.765Z,99867.78
2023-08-08T10:07:31.606Z,99863.69
2023-08-08T10:09:04.739Z,99866.72
2023-08-08T10:10:38.346Z,99859.13
2023-08-08T10:12:12.578Z,99861.13
2023-08-08T10:13:51.871Z,99859.78
2023-08-08T10:15:28.540Z,99849.88
2023-08-08T10:17:03.591Z,99851.06
2023-08-08T10:18:36.111Z,99846.78
2023-08-08T10:20:13.067Z,99853.22
2023-08-08T10:21:46.580Z,99851.50
2023-08-08T10:23:19.820Z,99855.19
2023-08-08T10:24:55.760Z,99854.50
2023-08-08T10:26:29.495Z,99839.13
2023-08-08T10:28:26.358Z,99847.28
2023-08-08T10:30:05.322Z,99834.09
2023-08-08T10:31:37.788Z,99842.03
2023-08-08T10:33:17.269Z,99834.84
2023-08-08T10:34:49.416Z,99831.88
2023-08-08T10:36:22.300Z,99827.22
2023-08-08T10:37:58.936Z,99834.94
2023-08-08T10:39:32.098Z,99836.41
2023-08-08T10:41:04.368Z,99828.97
2023-08-08T10:42:44.584Z,99827.91
2023-08-08T10:44:26.368Z,99823.91
2023-08-08T10:46:13.024Z,99822.38
2023-08-08T10:47:48.828Z,99817.53
2023-08-08T10:49:20.971Z,99831.91
2023-08-08T10:50:57.277Z,99819.56
2023-08-08T10:52:30.168Z,99820.72
2023-08-08T10:54:07.910Z,99811.97
2023-08-08T10:55:39.990Z,99818.38
2023-08-08T10:57:17.593Z,99802.00
2023-08-08T10:58:50.516Z,99816.09
2023-08-08T11:00:25.961Z,99809.13
2023-08-08T11:01:58.495Z,99809.97
2023-08-08T11:03:31.447Z,99792.56
2023-08-08T11:05:04.888Z,99809.59
2023-08-08T11:06:36.879Z,99821.19
2023-08-08T11:08:09.120Z,99804.59
2023-08-08T11:09:41.034Z,99802.06
2023-08-08T11:11:13.739Z,99809.72
2023-08-08T11:13:01.900Z,99794.84
2023-08-08T11:14:33.997Z,99793.50
2023-08-08T11:16:06.168Z,99792.16
2023-08-08T11:17:38.207Z,99789.75
2023-08-08T11:19:11.076Z,99788.00
2023-08-08T11:20:43.805Z,99788.63
2023-08-08T11:22:15.699Z,99783.31
2023-08-08T11:23:48.988Z,99785.94
2023-08-08T11:25:22.181Z,99789.84
2023-08-08T11:27:00.109Z,99780.44
2023-08-08T11:28:32.061Z,99789.34
2023-08-08T11:30:05.711Z,99791.75
2023-08-08T11:31:39.166Z,99787.16
2023-08-08T11:33:15.892Z,99776.69
2023-08-08T11:34:49.035Z,99775.88
2023-08-08T11:36:21.997Z,99760.75
2023-08-08T11:37:57.008Z,99763.31
2023-08-08T11:39:30.503Z,99768.22
2023-08-08T11:41:02.577Z,99759.41
2023-08-08T11:42:34.613Z,99754.88
2023-08-08T11:44:10.011Z,99750.53
2023-08-08T11:45:44.208Z,99751.63
2023-08-08T11:47:16.090Z,99749.94
2023-08-08T11:48:48.122Z,99748.53
2023-08-08T11:50:21.779Z,99739.63
2023-08-08T11:51:57.026Z,99743.81
2023-08-08T11:53:29.134Z,99734.06
2023-08-08T11:55:04.154Z,99735.69
2023-08-08T11:56:37.684Z,99735.88
2023-08-08T11:58:15.715Z,99737.06
2023-08-08T11:59:50.802Z,99731.75
2023-08-08T12:01:24.533Z,99727.56
2023-08-08T12:02:57.153Z,99722.06
2023-08-08T12:04:29.288Z,99721.00
2023-08-08T12:06:01.172Z,99725.84
2023-08-08T12:07:35.615Z,99719.72
2023-08-08T12:09:07.902Z,99714.03
2023-08-08T12:10:39.922Z,99733.09
2023-08-08T12:12:11.838Z,99736.72
2023-08-08T12:13:45.343Z,99735.88
2023-08-08T12:15:17.390Z,99747.94
2023-08-08T12:16:49.443Z,99741.25
2023-08-08T12:18:21.963Z,99728.16
2023-08-08T12:19:53.895Z,99729.03
2023-08-08T12:21:25.952Z,99748.69
2023-08-08T12:22:58.743Z,99743.88
2023-08-08T12:24:30.744Z,99747.03
2023-08-08T12:26:08.726Z,99749.75
2023-08-08T12:27:40.642Z,99744.69
2023-08-08T12:29:13.398Z,99739.56
2023-08-08T12:30:45.354Z,99741.78
2023-08-08T12:32:17.290Z,99740.44
2023-08-08T12:33:50.224Z,99738.00
2023-08-08T12:35:22.317Z,99747.09
2023-08-08T12:36:54.191Z,99758.13
2023-08-08T12:38:26.047Z,99748.94
2023-08-08T12:39:58.299Z,99736.41
2023-08-08T12:41:31.007Z,99729.28
2023-08-08T12:43:02.936Z,99719.06
2023-08-08T12:44:34.886Z,99732.00
2023-08-08T12:46:06.880Z,99738.25
2023-08-08T12:47:39.065Z,99726.69
2023-08-08T12:49:11.297Z,99727.78
2023-08-08T12:50:43.716Z,99724.66
2023-08-08T12:52:15.638Z,99719.63
2023-08-08T12:53:47.577Z,99722.84
2023-08-08T12:55:19.873Z,99712.38
2023-08-08T12:56:51.749Z,99713.22
2023-08-08T12:58:24.388Z,99725.00
2023-08-08T12:59:56.392Z,99717.84
2023-08-08T13:01:28.557Z,99717.19
2023-08-08T13:03:02.338Z,99726.44
2023-08-08T13:04:35.143Z,99720.50
2023-08-08T13:06:07.101Z,99728.25
2023-08-08T13:07:38.985Z,99732.22
2023-08-08T13:09:11.823Z,99734.28
2023-08-08T13:10:43.796Z,99723.97
2023-08-08T13:12:15.832Z,99720.56
2023-08-08T13:13:47.690Z,99702.50
2023-08-08T13:15:19.663Z,99695.81
2023-08-08T13:16:52.597Z,99703.00
2023-08-08T13:18:24.470Z,99699.09
2023-08-08T13:19:56.344Z,99699.41
2023-08-08T13:21:28.461Z,99699.38
2023-08-08T13:23:00.380Z,99694.44
2023-08-08T13:24:32.703Z,99690.13
2023-08-08T13:26:04.951Z,99688.94
2023-08-08T13:27:37.480Z,99690.69
2023-08-08T13:29:10.053Z,99692.50
2023-08-08T13:30:44.273Z,99691.50
2023-08-08T13:32:16.412Z,99685.88
2023-08-08T13:33:48.305Z,99681.31
2023-08-08T13:35:20.298Z,99687.66
2023-08-08T13:36:52.188Z,99686.88
2023-08-08T13:38:25.099Z,99686.88
2023-08-08T13:39:57.103Z,99687.97
2023-08-08T13:41:29.022Z,99684.38
2023-08-08T13:43:00.882Z,99677.00
2023-08-08T13:44:32.800Z,99678.91
2023-08-08T13:46:09.067Z,99678.47
2023-08-08T13:47:41.222Z,99674.84
2023-08-08T13:49:13.341Z,99674.78
2023-08-08T13:50:45.494Z,99680.03
2023-08-08T13:52:17.410Z,99652.03
2023-08-08T13:53:50.412Z,99663.09
2023-08-08T13:55:22.406Z,99668.34
2023-08-08T13:56:54.319Z,99672.06
2023-08-08T13:58:26.364Z,99678.75
2023-08-08T13:59:58.616Z,99690.91
2023-08-08T14:01:30.528Z,99679.22
2023-08-08T14:03:03.587Z,99677.47
2023-08-08T14:04:35.585Z,99677.94
2023-08-08T14:06:07.540Z,99685.22
2023-08-08T14:07:39.484Z,99677.50
2023-08-08T14:09:12.061Z,99683.16
2023-08-08T14:10:44.789Z,99686.78
2023-08-08T14:12:16.872Z,99683.16
2023-08-08T14:13:49.073Z,99688.53
2023-08-08T14:15:20.981Z,99689.88
2023-08-08T14:16:53.840Z,99696.34
2023-08-08T14:18:26.412Z,99704.72
2023-08-08T14:19:58.278Z,99704.41
2023-08-08T14:21:30.202Z,99696.06
2023-08-08T14:23:02.147Z,99697.69
2023-08-08T14:24:34.096Z,99686.56
2023-08-08T14:26:06.229Z,99698.06
2023-08-08T14:27:38.409Z,99692.84
2023-08-08T14:29:10.273Z,99689.94
2023-08-08T14:30:42.190Z,99683.44
2023-08-08T14:32:14.114Z,99680.91
2023-08-08T14:33:46.022Z,99684.72
2023-08-08T14:35:17.889Z,99685.38
2023-08-08T14:36:50.064Z,99666.59
2023-08-08T14:38:25.061Z,99673.75
2023-08-08T14:39:56.926Z,99668.28
2023-08-08T14:41:29.339Z,99673.13
2023-08-08T14:43:01.617Z,99665.31
2023-08-08T14:44:33.503Z,99669.06
2023-08-08T14:46:05.470Z,99672.47
2023-08-08T14:47:37.416Z,99673.03
2023-08-08T14:49:10.186Z,99674.84
2023-08-08T14:50:42.167Z,99669.63
2023-08-08T14:52:14.558Z,99668.44
2023-08-08T14:53:46.464Z,99675.19
2023-08-08T14:55:18.365Z,99673.44
2023-08-08T14:56:50.377Z,99671.25
2023-08-08T14:58:23.173Z,99668.84
2023-08-08T14:59:59.506Z,99678.47
2023-08-08T15:01:31.489Z,99671.16
2023-08-08T15:03:03.574Z,99686.78
2023-08-08T15:04:36.013Z,99683.84
2023-08-08T15:06:08.084Z,99686.88
2023-08-08T15:07:40.106Z,99687.81
2023-08-08T15:09:12.451Z,99688.25
2023-08-08T15:10:44.303Z,99704.78
2023-08-08T15:12:17.731Z,99709.66
2023-08-08T15:13:49.753Z,99705.69
2023-08-08T15:15:24.329Z,99715.38
2023-08-08T15:16:58.091Z,99697.72
2023-08-08T15:18:30.410Z,99704.88
2023-08-08T15:20:02.647Z,99703.97
2023-08-08T15:21:34.878Z,99702.25
2023-08-08T15:23:06.839Z,99704.91
2023-08-08T15:24:38.723Z,99701.88
2023-08-08T15:26:10.587Z,99702.16
2023-08-08T15:27:42.640Z,99709.59
2023-08-08T15:29:14.516Z,99700.88
2023-08-08T15:30:46.482Z,99703.78
2023-08-08T15:32:18.462Z,99703.25
2023-08-08T15:33:50.340Z,99706.50
2023-08-08T15:35:22.218Z,99710.03
2023-08-08T15:36:54.178Z,99709.38
2023-08-08T15:38:26.076Z,99718.72
2023-08-08T15:40:00.211Z,99729.53
2023-08-08T15:41:32.180Z,99736.69
2023-08-08T15:43:04.107Z,99726.66
2023-08-08T15:44:36.143Z,99746.56
2023-08-08T15:46:08.915Z,99742.69
2023-08-08T15:47:40.828Z,99746.31
2023-08-08T15:49:13.784Z,99740.38
2023-08-08T15:50:46.043Z,99747.72
2023-08-08T15:52:18.417Z,99742.41
2023-08-08T15:53:50.254Z,99754.16
2023-08-08T15:55:22.772Z,99751.91
2023-08-08T15:56:54.741Z,99760.91
2023-08-08T15:58:27.496Z,99759.44
2023-08-08T15:59:59.680Z,99761.81
2023-08-08T16:01:31.596Z,99756.94
2023-08-08T16:03:03.898Z,99758.59
2023-08-08T16:04:35.934Z,99770.81
2023-08-08T16:06:07.876Z,99761.50
2023-08-08T16:07:39.723Z,99761.25
2023-08-08T16:09:11.741Z,99769.78
2023-08-08T16:10:43.611Z,99766.78
2023-08-08T16:12:15.792Z,99769.28
2023-08-08T16:13:47.945Z,99788.16
2023-08-08T16:15:20.024Z,99776.50
2023-08-08T16:16:52.266Z,99783.84
2023-08-08T16:18:24.203Z,99784.59
2023-08-08T16:19:56.043Z,99779.94
2023-08-08T16:21:27.973Z,99784.97
2023-08-08T16:22:59.888Z,99785.75
2023-08-08T16:24:31.789Z,99785.53
2023-08-08T16:26:03.771Z,99798.94
2023-08-08T16:27:36.610Z,99812.16
2023-08-08T16:29:08.631Z,99807.47
2023-08-08T16:30:40.572Z,99806.59
2023-08-08T16:32:12.460Z,99806.75
2023-08-08T16:33:44.425Z,99807.53
2023-08-08T16:35:16.340Z,99823.56
2023-08-08T16:36:49.218Z,99811.50
2023-08-08T16:38:21.127Z,99813.31
2023-08-08T16:39:53.077Z,99810.34
2023-08-08T16:41:24.938Z,99814.88
2023-08-08T16:42:57.118Z,99804.31
2023-08-08T16:44:29.030Z,99808.88
2023-08-08T16:46:00.896Z,99799.78
2023-08-08T16:47:32.813Z,99805.44
2023-08-08T16:49:04.761Z,99799.69
2023-08-08T16:50:36.660Z,99801.13
2023-08-08T16:52:08.595Z,99799.63
2023-08-08T16:53:40.466Z,99797.28
2023-08-08T16:55:12.471Z,99798.50
2023-08-08T16:56:44.390Z,99797.19
2023-08-08T16:58:16.341Z,99803.50
2023-08-08T16:59:48.248Z,99794.47
2023-08-08T17:01:20.506Z,99798.22
2023-08-08T17:02:52.496Z,99798.22
2023-08-08T17:04:24.493Z,99801.81
2023-08-08T17:05:56.385Z,99800.97
2023-08-08T17:07:30.397Z,99800.13
2023-08-08T17:09:02.306Z,99802.84
2023-08-08T17:10:34.233Z,99796.72
2023-08-08T17:12:06.724Z,99800.50
2023-08-08T17:13:39.091Z,99801.53
2023-08-08T17:15:11.146Z,99795.78
2023-08-08T17:16:43.165Z,99792.19
2023-08-08T17:18:15.066Z,99797.16
2023-08-08T17:19:47.061Z,99802.16
2023-08-08T17:21:19.113Z,99796.06
2023-08-08T17:22:51.047Z,99792.00
2023-08-08T17:24:28.160Z,99789.66
2023-08-08T17:26:04.304Z,99790.91
2023-08-08T17:27:36.901Z,99800.47
2023-08-08T17:29:08.831Z,99792.88
2023-08-08T17:30:40.798Z,99802.66
2023-08-08T17:32:12.750Z,99800.66
2023-08-08T17:33:44.766Z,99797.84
2023-08-08T17:35:17.429Z,99796.72
2023-08-08T17:36:50.355Z,99802.09
2023-08-08T17:38:22.281Z,99784.97
2023-08-08T17:39:54.176Z,99789.22
2023-08-08T17:41:26.129Z,99798.34
2023-08-08T17:42:58.072Z,99791.94
2023-08-08T17:44:29.952Z,99792.00
2023-08-08T17:46:01.920Z,99781.19
2023-08-08T17:47:34.507Z,99788.38
2023-08-08T17:49:06.489Z,99783.03
2023-08-08T17:50:38.403Z,99777.47
2023-08-08T17:52:13.145Z,99787.41
2023-08-08T17:53:45.035Z,99783.50
2023-08-08T17:55:17.028Z,99777.94
2023-08-08T17:56:49.078Z,99778.63
2023-08-08T17:58:20.999Z,99783.13
2023-08-08T17:59:52.926Z,99783.00
2023-08-08T18:01:25.419Z,99779.94
2023-08-08T18:02:59.074Z,99785.94
2023-08-08T18:04:32.396Z,99782.75
2023-08-08T18:06:04.421Z,99790.41
2023-08-08T18:07:36.349Z,99790.09
2023-08-08T18:09:08.335Z,99793.16
2023-08-08T18:10:43.618Z,99787.41